SGU weather

St George Municipal Airport
St George, Utah, United States

Public forecast

Using degrees Fahrenheit for public forecast. Weather courtesy of forecast.io.

METAR (pilot weather report)

Retrieved 2018/11/16 02:56 UTC (26 minutes ago):

KSGU 160256Z AUTO 12003KT 10SM CLR 10/M08 A3014 RMK AO2 SLP209 6//// T01001083 53003

TAF (pilot weather forecast)

Forecast is more than 12 hours old.

Retrieved 2018/11/15 00:22 UTC (1 day ago):

TAF KSGU 152320Z 1600/1624 VRB04KT P6SM SCT200